sensor_id;sensor_type;location;lat;lon;timestamp;pressure;altitude;pressure_sealevel;temperature;humidity
16738;BME280;17906;47.684;10.806;2022-09-02T00:00:40;93329.75;;;6.39;91.56
16738;BME280;17906;47.684;10.806;2022-09-02T00:03:07;93324.47;;;6.51;91.31
16738;BME280;17906;47.684;10.806;2022-09-02T00:05:35;93322.50;;;6.40;91.37
16738;BME280;17906;47.684;10.806;2022-09-02T00:08:02;93318.97;;;6.39;91.71
16738;BME280;17906;47.684;10.806;2022-09-02T00:10:29;93314.84;;;6.37;91.63
16738;BME280;17906;47.684;10.806;2022-09-02T00:12:56;93314.97;;;6.24;92.46
16738;BME280;17906;47.684;10.806;2022-09-02T00:15:22;93309.34;;;6.25;92.27
16738;BME280;17906;47.684;10.806;2022-09-02T00:17:50;93311.81;;;6.27;93.18
16738;BME280;17906;47.684;10.806;2022-09-02T00:20:17;93305.28;;;6.16;93.34
16738;BME280;17906;47.684;10.806;2022-09-02T00:22:45;93309.69;;;6.04;92.42
16738;BME280;17906;47.684;10.806;2022-09-02T00:25:13;93304.53;;;6.09;92.67
16738;BME280;17906;47.684;10.806;2022-09-02T00:27:39;93308.03;;;6.09;92.18
16738;BME280;17906;47.684;10.806;2022-09-02T00:30:07;93305.16;;;6.04;92.03
16738;BME280;17906;47.684;10.806;2022-09-02T00:32:34;93307.22;;;6.02;92.37
16738;BME280;17906;47.684;10.806;2022-09-02T00:35:01;93301.69;;;5.97;92.52
16738;BME280;17906;47.684;10.806;2022-09-02T00:37:27;93302.53;;;5.98;92.91
16738;BME280;17906;47.684;10.806;2022-09-02T00:39:56;93313.69;;;5.95;94.22
16738;BME280;17906;47.684;10.806;2022-09-02T00:42:24;93312.47;;;5.97;94.59
16738;BME280;17906;47.684;10.806;2022-09-02T00:44:52;93307.91;;;5.98;94.04
16738;BME280;17906;47.684;10.806;2022-09-02T00:47:19;93304.75;;;6.01;93.73
16738;BME280;17906;47.684;10.806;2022-09-02T00:49:49;93301.84;;;6.02;93.50
16738;BME280;17906;47.684;10.806;2022-09-02T00:52:19;93299.00;;;5.97;91.75
16738;BME280;17906;47.684;10.806;2022-09-02T00:54:52;93300.94;;;5.83;91.50
16738;BME280;17906;47.684;10.806;2022-09-02T00:57:24;93299.31;;;5.82;91.86
16738;BME280;17906;47.684;10.806;2022-09-02T01:00:04;93286.47;;;5.84;93.00
16738;BME280;17906;47.684;10.806;2022-09-02T01:02:32;93296.06;;;5.74;92.97
16738;BME280;17906;47.684;10.806;2022-09-02T01:04:59;93295.91;;;5.62;92.72
16738;BME280;17906;47.684;10.806;2022-09-02T01:07:30;93294.28;;;5.61;92.02
16738;BME280;17906;47.684;10.806;2022-09-02T01:09:58;93298.66;;;5.55;93.18
16738;BME280;17906;47.684;10.806;2022-09-02T01:12:28;93296.38;;;5.59;92.78
16738;BME280;17906;47.684;10.806;2022-09-02T01:14:55;93295.59;;;5.52;92.86
16738;BME280;17906;47.684;10.806;2022-09-02T01:17:22;93286.97;;;5.43;93.57
16738;BME280;17906;47.684;10.806;2022-09-02T01:19:52;93297.25;;;5.53;94.61
16738;BME280;17906;47.684;10.806;2022-09-02T01:22:23;93296.28;;;5.41;94.53
16738;BME280;17906;47.684;10.806;2022-09-02T01:24:51;93287.81;;;5.37;93.99
16738;BME280;17906;47.684;10.806;2022-09-02T01:27:20;93290.94;;;5.34;95.40
16738;BME280;17906;47.684;10.806;2022-09-02T01:29:50;93294.81;;;5.45;94.70
16738;BME280;17906;47.684;10.806;2022-09-02T01:32:17;93293.59;;;5.41;94.62
16738;BME280;17906;47.684;10.806;2022-09-02T01:34:43;93297.53;;;5.38;94.54
16738;BME280;17906;47.684;10.806;2022-09-02T01:37:10;93295.09;;;5.30;94.92
16738;BME280;17906;47.684;10.806;2022-09-02T01:39:38;93292.81;;;5.27;94.97
16738;BME280;17906;47.684;10.806;2022-09-02T01:42:05;93296.09;;;5.36;93.98
16738;BME280;17906;47.684;10.806;2022-09-02T01:44:32;93293.78;;;5.39;94.12
16738;BME280;17906;47.684;10.806;2022-09-02T01:47:02;93297.78;;;5.30;93.55
16738;BME280;17906;47.684;10.806;2022-09-02T01:49:29;93294.88;;;5.32;93.38
16738;BME280;17906;47.684;10.806;2022-09-02T01:51:56;93296.13;;;5.29;93.70
16738;BME280;17906;47.684;10.806;2022-09-02T01:54:22;93291.75;;;5.35;92.32
16738;BME280;17906;47.684;10.806;2022-09-02T01:56:51;93285.41;;;5.22;91.50
16738;BME280;17906;47.684;10.806;2022-09-02T01:59:17;93285.03;;;5.19;91.52
16738;BME280;17906;47.684;10.806;2022-09-02T02:01:45;93288.19;;;5.09;93.31
16738;BME280;17906;47.684;10.806;2022-09-02T02:04:13;93278.03;;;5.11;93.57
16738;BME280;17906;47.684;10.806;2022-09-02T02:06:41;93278.03;;;5.11;93.48
16738;BME280;17906;47.684;10.806;2022-09-02T02:09:09;93272.91;;;5.03;95.47
16738;BME280;17906;47.684;10.806;2022-09-02T02:11:41;93274.97;;;5.01;96.14
16738;BME280;17906;47.684;10.806;2022-09-02T02:14:09;93284.06;;;5.00;96.40
16738;BME280;17906;47.684;10.806;2022-09-02T02:16:36;93281.38;;;5.00;94.33
16738;BME280;17906;47.684;10.806;2022-09-02T02:19:04;93273.94;;;5.02;93.85
16738;BME280;17906;47.684;10.806;2022-09-02T02:21:31;93271.47;;;5.01;93.97
16738;BME280;17906;47.684;10.806;2022-09-02T02:23:58;93277.69;;;4.94;93.80
16738;BME280;17906;47.684;10.806;2022-09-02T02:26:25;93280.16;;;4.96;93.81
16738;BME280;17906;47.684;10.806;2022-09-02T02:28:52;93273.75;;;4.97;93.98
16738;BME280;17906;47.684;10.806;2022-09-02T02:31:20;93266.56;;;4.84;95.74
16738;BME280;17906;47.684;10.806;2022-09-02T02:33:48;93265.94;;;4.89;95.67
16738;BME280;17906;47.684;10.806;2022-09-02T02:36:16;93261.78;;;4.93;94.54
16738;BME280;17906;47.684;10.806;2022-09-02T02:38:43;93265.50;;;4.92;94.39
16738;BME280;17906;47.684;10.806;2022-09-02T02:41:11;93264.09;;;4.89;93.31
16738;BME280;17906;47.684;10.806;2022-09-02T02:43:38;93264.13;;;4.76;93.44
16738;BME280;17906;47.684;10.806;2022-09-02T02:46:06;93262.06;;;4.72;93.74
16738;BME280;17906;47.684;10.806;2022-09-02T02:48:34;93265.63;;;4.65;94.38
16738;BME280;17906;47.684;10.806;2022-09-02T02:51:01;93257.75;;;4.71;93.70
16738;BME280;17906;47.684;10.806;2022-09-02T02:53:28;93272.38;;;4.75;92.75
16738;BME280;17906;47.684;10.806;2022-09-02T02:55:55;93259.16;;;4.73;93.06
16738;BME280;17906;47.684;10.806;2022-09-02T02:58:22;93262.34;;;4.57;94.28
16738;BME280;17906;47.684;10.806;2022-09-02T03:00:49;93261.69;;;4.68;94.63
16738;BME280;17906;47.684;10.806;2022-09-02T03:03:15;93255.66;;;4.73;94.75
16738;BME280;17906;47.684;10.806;2022-09-02T03:05:46;93258.56;;;4.78;95.69
16738;BME280;17906;47.684;10.806;2022-09-02T03:08:15;93269.31;;;4.71;95.70
16738;BME280;17906;47.684;10.806;2022-09-02T03:10:45;93251.72;;;4.75;96.19
16738;BME280;17906;47.684;10.806;2022-09-02T03:13:12;93254.22;;;4.77;96.87
16738;BME280;17906;47.684;10.806;2022-09-02T03:15:40;93257.72;;;4.77;97.09
16738;BME280;17906;47.684;10.806;2022-09-02T03:18:07;93246.56;;;4.74;98.01
16738;BME280;17906;47.684;10.806;2022-09-02T03:20:34;93246.34;;;4.82;98.61
16738;BME280;17906;47.684;10.806;2022-09-02T03:23:03;93248.59;;;4.85;99.21
16738;BME280;17906;47.684;10.806;2022-09-02T03:25:31;93247.97;;;4.89;99.96
16738;BME280;17906;47.684;10.806;2022-09-02T03:27:58;93243.38;;;4.96;99.86
16738;BME280;17906;47.684;10.806;2022-09-02T03:30:27;93239.84;;;5.03;100.00
16738;BME280;17906;47.684;10.806;2022-09-02T03:32:56;93244.00;;;4.99;100.00
16738;BME280;17906;47.684;10.806;2022-09-02T03:35:25;93244.16;;;5.10;100.00
16738;BME280;17906;47.684;10.806;2022-09-02T03:37:53;93236.31;;;5.09;100.00
16738;BME280;17906;47.684;10.806;2022-09-02T03:40:23;93241.63;;;5.15;100.00
16738;BME280;17906;47.684;10.806;2022-09-02T03:42:51;93242.41;;;5.22;100.00
16738;BME280;17906;47.684;10.806;2022-09-02T03:45:19;93237.25;;;5.21;100.00
16738;BME280;17906;47.684;10.806;2022-09-02T03:47:46;93249.25;;;5.18;100.00
16738;BME280;17906;47.684;10.806;2022-09-02T03:50:20;93237.28;;;5.14;100.00
16738;BME280;17906;47.684;10.806;2022-09-02T03:52:47;93242.28;;;5.11;100.00
16738;BME280;17906;47.684;10.806;2022-09-02T03:55:14;93234.22;;;5.11;100.00
16738;BME280;17906;47.684;10.806;2022-09-02T03:57:42;93232.16;;;5.06;100.00
16738;BME280;17906;47.684;10.806;2022-09-02T04:00:11;93238.19;;;5.02;100.00
16738;BME280;17906;47.684;10.806;2022-09-02T04:02:38;93240.22;;;5.06;100.00
16738;BME280;17906;47.684;10.806;2022-09-02T04:05:06;93247.06;;;5.02;100.00
16738;BME280;17906;47.684;10.806;2022-09-02T04:07:33;93240.22;;;5.06;100.00
16738;BME280;17906;47.684;10.806;2022-09-02T04:10:00;93232.75;;;5.15;100.00
16738;BME280;17906;47.684;10.806;2022-09-02T04:12:26;93238.72;;;5.17;100.00
16738;BME280;17906;47.684;10.806;2022-09-02T04:14:54;93227.75;;;5.18;100.00
16738;BME280;17906;47.684;10.806;2022-09-02T04:17:21;93230.03;;;5.21;100.00
16738;BME280;17906;47.684;10.806;2022-09-02T04:19:47;93230.41;;;5.25;100.00
16738;BME280;17906;47.684;10.806;2022-09-02T04:22:14;93225.03;;;5.25;100.00
16738;BME280;17906;47.684;10.806;2022-09-02T04:24:41;93217.00;;;5.18;100.00
16738;BME280;17906;47.684;10.806;2022-09-02T04:27:07;93230.94;;;5.09;99.77
16738;BME280;17906;47.684;10.806;2022-09-02T04:29:34;93227.59;;;5.13;100.00
16738;BME280;17906;47.684;10.806;2022-09-02T04:32:02;93232.84;;;4.95;100.00
16738;BME280;17906;47.684;10.806;2022-09-02T04:34:29;93231.41;;;4.92;100.00
16738;BME280;17906;47.684;10.806;2022-09-02T04:36:56;93228.94;;;4.91;100.00
16738;BME280;17906;47.684;10.806;2022-09-02T04:39:23;93228.28;;;4.95;100.00
16738;BME280;17906;47.684;10.806;2022-09-02T04:41:49;93228.28;;;5.02;100.00
16738;BME280;17906;47.684;10.806;2022-09-02T04:44:18;93225.75;;;5.07;100.00
16738;BME280;17906;47.684;10.806;2022-09-02T04:46:44;93235.66;;;5.07;100.00
16738;BME280;17906;47.684;10.806;2022-09-02T04:49:13;93231.13;;;5.07;100.00
16738;BME280;17906;47.684;10.806;2022-09-02T04:51:40;93226.56;;;5.08;100.00
16738;BME280;17906;47.684;10.806;2022-09-02T04:54:06;93224.50;;;5.10;100.00
16738;BME280;17906;47.684;10.806;2022-09-02T04:56:33;93224.19;;;4.93;100.00
16738;BME280;17906;47.684;10.806;2022-09-02T04:59:00;93226.44;;;4.96;100.00
16738;BME280;17906;47.684;10.806;2022-09-02T05:01:29;93228.47;;;5.01;100.00
16738;BME280;17906;47.684;10.806;2022-09-02T05:03:56;93229.22;;;5.14;100.00
16738;BME280;17906;47.684;10.806;2022-09-02T05:06:27;93233.56;;;5.15;100.00
16738;BME280;17906;47.684;10.806;2022-09-02T05:08:54;93225.06;;;5.18;100.00
16738;BME280;17906;47.684;10.806;2022-09-02T05:11:24;93234.50;;;5.27;100.00
16738;BME280;17906;47.684;10.806;2022-09-02T05:13:53;93233.66;;;5.34;100.00
16738;BME280;17906;47.684;10.806;2022-09-02T05:16:23;93232.59;;;5.41;100.00
16738;BME280;17906;47.684;10.806;2022-09-02T05:18:51;93229.41;;;5.51;100.00
16738;BME280;17906;47.684;10.806;2022-09-02T05:21:19;93223.75;;;5.59;100.00
16738;BME280;17906;47.684;10.806;2022-09-02T05:23:47;93222.00;;;5.71;100.00
16738;BME280;17906;47.684;10.806;2022-09-02T05:26:14;93230.47;;;5.75;100.00
16738;BME280;17906;47.684;10.806;2022-09-02T05:28:42;93231.00;;;5.83;100.00
16738;BME280;17906;47.684;10.806;2022-09-02T05:31:11;93228.31;;;5.83;100.00
16738;BME280;17906;47.684;10.806;2022-09-02T05:33:40;93222.63;;;5.98;100.00
16738;BME280;17906;47.684;10.806;2022-09-02T05:36:09;93223.19;;;6.07;100.00
16738;BME280;17906;47.684;10.806;2022-09-02T05:38:36;93224.53;;;6.16;100.00
16738;BME280;17906;47.684;10.806;2022-09-02T05:41:05;93228.59;;;6.25;100.00
16738;BME280;17906;47.684;10.806;2022-09-02T05:43:34;93227.19;;;6.23;100.00
16738;BME280;17906;47.684;10.806;2022-09-02T05:46:03;93233.56;;;6.28;100.00
16738;BME280;17906;47.684;10.806;2022-09-02T05:48:32;93218.72;;;6.37;100.00
16738;BME280;17906;47.684;10.806;2022-09-02T05:51:16;93226.97;;;6.43;100.00
16738;BME280;17906;47.684;10.806;2022-09-02T05:53:43;93218.38;;;6.52;100.00
16738;BME280;17906;47.684;10.806;2022-09-02T05:56:11;93218.09;;;6.60;100.00
16738;BME280;17906;47.684;10.806;2022-09-02T05:58:38;93217.88;;;6.62;100.00
16738;BME280;17906;47.684;10.806;2022-09-02T06:01:08;93218.00;;;6.67;100.00
16738;BME280;17906;47.684;10.806;2022-09-02T06:03:35;93224.22;;;6.67;100.00
16738;BME280;17906;47.684;10.806;2022-09-02T06:06:02;93222.88;;;6.77;100.00
16738;BME280;17906;47.684;10.806;2022-09-02T06:08:28;93223.22;;;6.80;100.00
16738;BME280;17906;47.684;10.806;2022-09-02T06:10:55;93224.28;;;6.79;100.00
16738;BME280;17906;47.684;10.806;2022-09-02T06:13:23;93218.06;;;6.79;100.00
16738;BME280;17906;47.684;10.806;2022-09-02T06:15:50;93214.03;;;6.69;100.00
16738;BME280;17906;47.684;10.806;2022-09-02T06:18:17;93226.25;;;6.72;100.00
16738;BME280;17906;47.684;10.806;2022-09-02T06:20:45;93220.25;;;6.70;100.00
16738;BME280;17906;47.684;10.806;2022-09-02T06:23:13;93219.34;;;6.76;100.00
16738;BME280;17906;47.684;10.806;2022-09-02T06:25:43;93219.72;;;6.80;100.00
16738;BME280;17906;47.684;10.806;2022-09-02T06:28:10;93215.19;;;6.92;100.00
16738;BME280;17906;47.684;10.806;2022-09-02T06:30:39;93219.00;;;7.03;100.00
16738;BME280;17906;47.684;10.806;2022-09-02T06:33:07;93220.34;;;7.12;100.00
16738;BME280;17906;47.684;10.806;2022-09-02T06:35:36;93215.22;;;7.22;100.00
16738;BME280;17906;47.684;10.806;2022-09-02T06:38:03;93231.56;;;7.27;100.00
16738;BME280;17906;47.684;10.806;2022-09-02T06:40:31;93222.47;;;7.40;100.00
16738;BME280;17906;47.684;10.806;2022-09-02T06:42:58;93226.34;;;7.44;100.00
16738;BME280;17906;47.684;10.806;2022-09-02T06:45:24;93221.88;;;7.38;100.00
16738;BME280;17906;47.684;10.806;2022-09-02T06:47:52;93217.41;;;7.43;100.00
16738;BME280;17906;47.684;10.806;2022-09-02T06:50:20;93217.06;;;7.40;100.00
16738;BME280;17906;47.684;10.806;2022-09-02T06:52:46;93226.84;;;7.52;100.00
16738;BME280;17906;47.684;10.806;2022-09-02T06:55:13;93225.53;;;7.55;100.00
16738;BME280;17906;47.684;10.806;2022-09-02T06:57:40;93218.78;;;7.64;100.00
16738;BME280;17906;47.684;10.806;2022-09-02T07:00:08;93217.84;;;7.58;100.00
16738;BME280;17906;47.684;10.806;2022-09-02T07:02:35;93222.06;;;7.66;100.00
16738;BME280;17906;47.684;10.806;2022-09-02T07:05:05;93218.44;;;7.72;100.00
16738;BME280;17906;47.684;10.806;2022-09-02T07:07:41;93221.97;;;7.73;100.00
16738;BME280;17906;47.684;10.806;2022-09-02T07:10:11;93221.75;;;7.86;100.00
16738;BME280;17906;47.684;10.806;2022-09-02T07:12:40;93222.50;;;7.93;100.00
16738;BME280;17906;47.684;10.806;2022-09-02T07:15:07;93220.75;;;7.99;100.00
16738;BME280;17906;47.684;10.806;2022-09-02T07:17:34;93223.09;;;7.95;100.00
16738;BME280;17906;47.684;10.806;2022-09-02T07:20:04;93220.28;;;8.02;100.00
16738;BME280;17906;47.684;10.806;2022-09-02T07:22:31;93221.13;;;8.02;100.00
16738;BME280;17906;47.684;10.806;2022-09-02T07:24:58;93227.19;;;8.09;100.00
16738;BME280;17906;47.684;10.806;2022-09-02T07:27:24;93222.63;;;8.22;100.00
16738;BME280;17906;47.684;10.806;2022-09-02T07:29:51;93226.28;;;8.27;100.00
16738;BME280;17906;47.684;10.806;2022-09-02T07:32:19;93221.69;;;8.16;100.00
16738;BME280;17906;47.684;10.806;2022-09-02T07:34:46;93220.97;;;8.44;99.13
16738;BME280;17906;47.684;10.806;2022-09-02T07:37:14;93230.28;;;8.48;100.00
16738;BME280;17906;47.684;10.806;2022-09-02T07:39:40;93224.88;;;8.48;98.75
16738;BME280;17906;47.684;10.806;2022-09-02T07:42:08;93227.25;;;8.44;98.70
16738;BME280;17906;47.684;10.806;2022-09-02T07:44:34;93231.44;;;8.52;100.00
16738;BME280;17906;47.684;10.806;2022-09-02T07:47:02;93224.38;;;8.63;99.69
16738;BME280;17906;47.684;10.806;2022-09-02T07:49:29;93226.97;;;8.69;97.26
16738;BME280;17906;47.684;10.806;2022-09-02T07:51:55;93225.09;;;8.70;98.50
16738;BME280;17906;47.684;10.806;2022-09-02T07:54:24;93220.94;;;8.91;97.81
16738;BME280;17906;47.684;10.806;2022-09-02T07:56:52;93225.97;;;8.99;98.06
16738;BME280;17906;47.684;10.806;2022-09-02T07:59:19;93216.41;;;9.08;96.99
16738;BME280;17906;47.684;10.806;2022-09-02T08:01:47;93223.81;;;9.13;96.19
16738;BME280;17906;47.684;10.806;2022-09-02T08:04:15;93219.31;;;9.18;95.92
16738;BME280;17906;47.684;10.806;2022-09-02T08:06:43;93220.91;;;9.31;95.41
16738;BME280;17906;47.684;10.806;2022-09-02T08:09:10;93214.94;;;9.29;95.41
16738;BME280;17906;47.684;10.806;2022-09-02T08:11:40;93219.72;;;9.39;95.99
16738;BME280;17906;47.684;10.806;2022-09-02T08:14:08;93225.81;;;9.46;95.94
16738;BME280;17906;47.684;10.806;2022-09-02T08:16:36;93222.03;;;9.58;94.63
16738;BME280;17906;47.684;10.806;2022-09-02T08:19:03;93223.22;;;9.79;96.46
16738;BME280;17906;47.684;10.806;2022-09-02T08:21:30;93223.56;;;10.00;94.19
16738;BME280;17906;47.684;10.806;2022-09-02T08:23:56;93222.81;;;10.04;93.01
16738;BME280;17906;47.684;10.806;2022-09-02T08:26:24;93230.69;;;10.06;92.46
16738;BME280;17906;47.684;10.806;2022-09-02T08:28:54;93226.34;;;10.05;93.00
16738;BME280;17906;47.684;10.806;2022-09-02T08:31:21;93224.22;;;10.07;92.98
16738;BME280;17906;47.684;10.806;2022-09-02T08:33:48;93224.38;;;10.17;92.16
16738;BME280;17906;47.684;10.806;2022-09-02T08:36:15;93225.28;;;10.23;93.20
16738;BME280;17906;47.684;10.806;2022-09-02T08:38:41;93221.75;;;10.39;93.23
16738;BME280;17906;47.684;10.806;2022-09-02T08:41:16;93219.38;;;10.42;91.57
16738;BME280;17906;47.684;10.806;2022-09-02T08:43:45;93212.31;;;10.41;90.42
16738;BME280;17906;47.684;10.806;2022-09-02T08:46:16;93214.69;;;10.55;91.73
16738;BME280;17906;47.684;10.806;2022-09-02T08:48:46;93214.41;;;10.73;91.24
16738;BME280;17906;47.684;10.806;2022-09-02T08:51:19;93217.09;;;10.90;90.52
16738;BME280;17906;47.684;10.806;2022-09-02T08:53:49;93209.53;;;10.92;89.41
16738;BME280;17906;47.684;10.806;2022-09-02T08:56:17;93215.28;;;11.17;89.59
16738;BME280;17906;47.684;10.806;2022-09-02T08:58:47;93211.50;;;11.40;88.29
16738;BME280;17906;47.684;10.806;2022-09-02T09:01:24;93202.16;;;11.58;87.30
16738;BME280;17906;47.684;10.806;2022-09-02T09:04:06;93203.41;;;11.99;85.43
16738;BME280;17906;47.684;10.806;2022-09-02T09:06:45;93206.50;;;12.45;82.73
16738;BME280;17906;47.684;10.806;2022-09-02T09:09:20;93205.31;;;13.15;78.83
16738;BME280;17906;47.684;10.806;2022-09-02T09:11:58;93204.94;;;13.54;78.12
16738;BME280;17906;47.684;10.806;2022-09-02T09:14:31;93202.63;;;14.03;75.52
16738;BME280;17906;47.684;10.806;2022-09-02T09:17:08;93185.47;;;14.18;75.69
16738;BME280;17906;47.684;10.806;2022-09-02T09:19:47;93189.25;;;14.93;73.55
16738;BME280;17906;47.684;10.806;2022-09-02T09:22:17;93195.63;;;15.58;68.87
16738;BME280;17906;47.684;10.806;2022-09-02T09:24:45;93189.44;;;16.36;68.63
16738;BME280;17906;47.684;10.806;2022-09-02T09:27:14;93189.25;;;16.62;65.38
16738;BME280;17906;47.684;10.806;2022-09-02T09:29:42;93189.69;;;16.74;64.33
16738;BME280;17906;47.684;10.806;2022-09-02T09:32:18;93189.31;;;17.09;63.88
16738;BME280;17906;47.684;10.806;2022-09-02T09:34:56;93189.94;;;17.30;62.75
16738;BME280;17906;47.684;10.806;2022-09-02T09:37:31;93180.34;;;17.57;62.51
16738;BME280;17906;47.684;10.806;2022-09-02T09:39:58;93182.72;;;17.39;64.45
16738;BME280;17906;47.684;10.806;2022-09-02T09:42:33;93180.72;;;17.88;61.34
16738;BME280;17906;47.684;10.806;2022-09-02T09:45:16;93175.94;;;17.98;61.69
16738;BME280;17906;47.684;10.806;2022-09-02T09:48:07;93175.81;;;18.28;62.10
16738;BME280;17906;47.684;10.806;2022-09-02T09:50:35;93178.47;;;18.51;59.30
16738;BME280;17906;47.684;10.806;2022-09-02T09:53:13;93169.38;;;18.70;58.64
16738;BME280;17906;47.684;10.806;2022-09-02T09:55:50;93169.72;;;18.82;58.11
16738;BME280;17906;47.684;10.806;2022-09-02T09:58:18;93160.22;;;19.07;58.07
16738;BME280;17906;47.684;10.806;2022-09-02T10:00:46;93158.97;;;19.32;58.15
16738;BME280;17906;47.684;10.806;2022-09-02T10:03:22;93161.69;;;19.46;57.43
16738;BME280;17906;47.684;10.806;2022-09-02T10:05:53;93149.66;;;19.28;56.39
16738;BME280;17906;47.684;10.806;2022-09-02T10:08:21;93149.69;;;19.42;57.73
16738;BME280;17906;47.684;10.806;2022-09-02T10:10:59;93155.59;;;19.49;56.89
16738;BME280;17906;47.684;10.806;2022-09-02T10:13:29;93139.78;;;19.82;56.44
16738;BME280;17906;47.684;10.806;2022-09-02T10:16:16;93147.88;;;20.28;56.61
16738;BME280;17906;47.684;10.806;2022-09-02T10:18:52;93148.22;;;19.99;54.43
16738;BME280;17906;47.684;10.806;2022-09-02T10:21:28;93145.28;;;20.32;55.13
16738;BME280;17906;47.684;10.806;2022-09-02T10:24:03;93141.09;;;19.98;55.08
16738;BME280;17906;47.684;10.806;2022-09-02T10:26:36;93135.09;;;19.96;55.42
16738;BME280;17906;47.684;10.806;2022-09-02T10:32:21;93132.72;;;20.17;54.48
16738;BME280;17906;47.684;10.806;2022-09-02T10:35:01;93133.31;;;20.36;54.00
16738;BME280;17906;47.684;10.806;2022-09-02T10:37:35;93130.47;;;20.41;54.62
16738;BME280;17906;47.684;10.806;2022-09-02T10:40:11;93125.00;;;20.64;52.73
16738;BME280;17906;47.684;10.806;2022-09-02T10:42:45;93128.44;;;20.33;53.20
16738;BME280;17906;47.684;10.806;2022-09-02T10:45:15;93128.72;;;20.68;52.43
16738;BME280;17906;47.684;10.806;2022-09-02T10:47:49;93128.59;;;20.95;51.42
16738;BME280;17906;47.684;10.806;2022-09-02T10:50:26;93123.22;;;20.68;50.99
16738;BME280;17906;47.684;10.806;2022-09-02T10:53:20;93129.13;;;20.75;49.66
16738;BME280;17906;47.684;10.806;2022-09-02T10:55:53;93119.81;;;20.62;50.58
16738;BME280;17906;47.684;10.806;2022-09-02T10:58:34;93117.38;;;20.61;50.50
16738;BME280;17906;47.684;10.806;2022-09-02T11:01:05;93112.69;;;20.70;50.39
16738;BME280;17906;47.684;10.806;2022-09-02T11:03:37;93106.81;;;20.85;49.92
16738;BME280;17906;47.684;10.806;2022-09-02T11:06:12;93120.75;;;20.89;50.71
16738;BME280;17906;47.684;10.806;2022-09-02T11:08:42;93108.44;;;20.86;51.76
16738;BME280;17906;47.684;10.806;2022-09-02T11:11:14;93109.97;;;21.01;51.80
16738;BME280;17906;47.684;10.806;2022-09-02T11:13:53;93111.72;;;20.66;50.00
16738;BME280;17906;47.684;10.806;2022-09-02T11:16:27;93113.47;;;20.93;51.49
16738;BME280;17906;47.684;10.806;2022-09-02T11:19:00;93110.88;;;20.88;51.21
16738;BME280;17906;47.684;10.806;2022-09-02T11:21:41;93103.25;;;20.84;51.36
16738;BME280;17906;47.684;10.806;2022-09-02T11:24:14;93105.22;;;20.93;48.59
16738;BME280;17906;47.684;10.806;2022-09-02T11:26:47;93102.25;;;20.58;50.63
16738;BME280;17906;47.684;10.806;2022-09-02T11:29:17;93110.13;;;20.29;51.13
16738;BME280;17906;47.684;10.806;2022-09-02T11:31:50;93114.13;;;20.45;51.48
16738;BME280;17906;47.684;10.806;2022-09-02T11:34:33;93109.94;;;20.47;50.62
16738;BME280;17906;47.684;10.806;2022-09-02T11:37:06;93104.69;;;20.60;50.71
16738;BME280;17906;47.684;10.806;2022-09-02T11:39:38;93106.00;;;20.40;50.58
16738;BME280;17906;47.684;10.806;2022-09-02T11:42:14;93112.16;;;20.59;51.37
16738;BME280;17906;47.684;10.806;2022-09-02T11:45:10;93113.75;;;20.60;50.33
16738;BME280;17906;47.684;10.806;2022-09-02T11:50:59;93106.53;;;20.64;50.07
16738;BME280;17906;47.684;10.806;2022-09-02T11:53:34;93107.06;;;20.75;49.09
16738;BME280;17906;47.684;10.806;2022-09-02T11:56:06;93109.03;;;20.74;49.16
16738;BME280;17906;47.684;10.806;2022-09-02T11:58:36;93104.81;;;20.77;50.75
16738;BME280;17906;47.684;10.806;2022-09-02T12:01:18;93109.22;;;20.55;49.50
16738;BME280;17906;47.684;10.806;2022-09-02T12:03:51;93103.00;;;20.50;48.96
16738;BME280;17906;47.684;10.806;2022-09-02T12:06:20;93109.13;;;20.47;49.90
16738;BME280;17906;47.684;10.806;2022-09-02T12:09:09;93101.81;;;20.65;50.57
16738;BME280;17906;47.684;10.806;2022-09-02T12:11:41;93102.47;;;20.62;50.87
16738;BME280;17906;47.684;10.806;2022-09-02T12:14:10;93111.03;;;20.82;50.37
16738;BME280;17906;47.684;10.806;2022-09-02T12:17:00;93111.28;;;20.72;50.81
16738;BME280;17906;47.684;10.806;2022-09-02T12:19:41;93100.34;;;20.45;49.03
16738;BME280;17906;47.684;10.806;2022-09-02T12:22:31;93102.81;;;20.69;50.75
16738;BME280;17906;47.684;10.806;2022-09-02T12:24:59;93104.63;;;20.51;49.40
16738;BME280;17906;47.684;10.806;2022-09-02T12:27:28;93098.56;;;20.40;51.14
16738;BME280;17906;47.684;10.806;2022-09-02T12:29:56;93106.47;;;20.55;51.22
16738;BME280;17906;47.684;10.806;2022-09-02T12:35:30;93098.34;;;20.37;49.25
16738;BME280;17906;47.684;10.806;2022-09-02T12:38:21;93097.22;;;20.15;49.21
16738;BME280;17906;47.684;10.806;2022-09-02T12:40:54;93099.00;;;19.97;50.00
16738;BME280;17906;47.684;10.806;2022-09-02T12:46:52;93084.44;;;19.97;51.17
16738;BME280;17906;47.684;10.806;2022-09-02T12:49:28;93088.69;;;20.03;50.55
16738;BME280;17906;47.684;10.806;2022-09-02T12:52:00;93084.88;;;20.13;49.76
16738;BME280;17906;47.684;10.806;2022-09-02T12:54:35;93078.09;;;20.33;51.20
16738;BME280;17906;47.684;10.806;2022-09-02T12:57:09;93087.38;;;20.01;51.38
16738;BME280;17906;47.684;10.806;2022-09-02T12:59:38;93087.59;;;19.90;52.39
16738;BME280;17906;47.684;10.806;2022-09-02T13:02:15;93085.81;;;19.86;53.15
16738;BME280;17906;47.684;10.806;2022-09-02T13:04:54;93083.16;;;19.67;51.80
16738;BME280;17906;47.684;10.806;2022-09-02T13:08:10;93078.38;;;19.59;50.43
16738;BME280;17906;47.684;10.806;2022-09-02T13:14:03;93075.59;;;19.73;51.61
16738;BME280;17906;47.684;10.806;2022-09-02T13:16:43;93065.91;;;19.89;54.38
16738;BME280;17906;47.684;10.806;2022-09-02T13:19:53;93065.22;;;19.69;50.88
16738;BME280;17906;47.684;10.806;2022-09-02T13:22:40;93068.47;;;19.72;52.20
16738;BME280;17906;47.684;10.806;2022-09-02T13:25:27;93060.28;;;19.94;53.51